Time;durP1;ratioP1;P1;durP2;ratioP2;P2;SDS_P1;SDS_P2;PMS_P1;PMS_P2;Temp;Humidity;BMP_temperature;BMP_pressure;BME280_temperature;BME280_humidity;BME280_pressure;Samples;Min_cycle;Max_cycle;Signal;HPM_P1;HPM_P2
2021/01/29 00:00:34;;;;;;;1.08;0.90;;;9.60;70.90;;;;;;5034537;28;20395;-79
2021/01/29 00:03:07;;;;;;;2.88;0.95;;;9.60;70.90;;;;;;5033660;28;20368;-79
2021/01/29 00:05:36;;;;;;;0.88;0.60;;;9.60;70.90;;;;;;5043044;28;20059;-79
2021/01/29 00:08:02;;;;;;;1.88;0.90;;;9.70;71.00;;;;;;5053046;28;20025;-78
2021/01/29 00:10:29;;;;;;;0.85;0.50;;;9.70;70.90;;;;;;5034793;28;20162;-79
2021/01/29 00:12:55;;;;;;;1.85;0.80;;;9.70;70.90;;;;;;5034327;28;20025;-78
2021/01/29 00:15:22;;;;;;;0.70;0.68;;;9.70;70.80;;;;;;5034243;28;20525;-78
2021/01/29 00:17:48;;;;;;;1.00;0.90;;;9.70;70.80;;;;;;5034177;28;20026;-79
2021/01/29 00:20:18;;;;;;;2.03;1.20;;;9.70;70.60;;;;;;5037822;28;20032;-78
2021/01/29 00:22:44;;;;;;;2.20;1.25;;;9.70;70.60;;;;;;5038441;28;20028;-78
2021/01/29 00:25:14;;;;;;;2.63;1.55;;;9.70;70.60;;;;;;5034087;28;20475;-79
2021/01/29 00:27:40;;;;;;;0.90;0.80;;;9.70;70.70;;;;;;5033594;28;20434;-78
2021/01/29 00:30:06;;;;;;;0.90;0.60;;;9.70;70.70;;;;;;5032585;28;20079;-78
2021/01/29 00:32:33;;;;;;;1.10;0.70;;;9.70;70.70;;;;;;5032629;28;20049;-78
2021/01/29 00:34:59;;;;;;;1.15;0.75;;;9.70;70.80;;;;;;5033943;28;20028;-79
2021/01/29 00:37:24;;;;;;;1.65;1.10;;;9.70;70.80;;;;;;5044905;28;20069;-79
2021/01/29 00:39:50;;;;;;;1.27;1.02;;;9.80;70.70;;;;;;5053695;28;20029;-78
2021/01/29 00:42:16;;;;;;;0.93;0.80;;;9.80;70.50;;;;;;5053671;28;20546;-78
2021/01/29 00:44:41;;;;;;;1.13;0.85;;;9.80;70.40;;;;;;5053583;28;20028;-78
2021/01/29 00:47:07;;;;;;;1.65;1.02;;;9.80;70.30;;;;;;5050744;28;20025;-79
2021/01/29 00:49:33;;;;;;;2.58;1.17;;;9.80;70.20;;;;;;5033552;28;20022;-78
2021/01/29 00:51:59;;;;;;;1.67;1.05;;;9.80;70.20;;;;;;5042561;28;20028;-78
2021/01/29 00:54:24;;;;;;;1.40;1.00;;;9.80;70.30;;;;;;5051991;28;20032;-78
2021/01/29 00:56:50;;;;;;;0.90;0.90;;;9.80;70.40;;;;;;5053348;28;20450;-78
2021/01/29 00:59:16;;;;;;;0.93;0.70;;;9.80;70.50;;;;;;5053234;28;20044;-78
2021/01/29 01:01:41;;;;;;;1.05;0.95;;;9.80;70.60;;;;;;5053276;28;20040;-79
2021/01/29 01:04:07;;;;;;;0.70;0.70;;;9.80;70.60;;;;;;5044737;28;20026;-78
2021/01/29 01:06:33;;;;;;;1.02;0.93;;;9.80;70.70;;;;;;5033592;28;20120;-78
2021/01/29 01:08:59;;;;;;;1.52;1.13;;;9.90;70.60;;;;;;5033221;28;20076;-78
2021/01/29 01:11:24;;;;;;;0.82;0.82;;;9.90;70.60;;;;;;5031941;28;20049;-79
2021/01/29 01:13:50;;;;;;;1.27;1.08;;;9.90;70.70;;;;;;5033115;28;20416;-78
2021/01/29 01:16:16;;;;;;;1.10;1.00;;;9.90;70.70;;;;;;5033164;28;20038;-79
2021/01/29 01:18:42;;;;;;;1.13;1.00;;;9.90;71.40;;;;;;5033097;28;20483;-78
2021/01/29 01:21:08;;;;;;;1.30;1.20;;;9.90;70.70;;;;;;5033191;28;20033;-79
2021/01/29 01:23:33;;;;;;;1.20;1.10;;;9.90;70.60;;;;;;5032827;28;20049;-78
2021/01/29 01:25:59;;;;;;;1.63;1.13;;;9.90;70.60;;;;;;5036652;28;20343;-78
2021/01/29 01:28:25;;;;;;;1.58;1.40;;;9.90;70.60;;;;;;5032834;28;20045;-77
2021/01/29 01:30:51;;;;;;;1.30;1.00;;;9.90;70.60;;;;;;5031868;28;20105;-78
2021/01/29 01:33:17;;;;;;;1.70;1.38;;;9.90;70.60;;;;;;5032812;28;20104;-78
2021/01/29 01:35:42;;;;;;;1.23;1.13;;;9.90;70.30;;;;;;5035790;28;20028;-78
2021/01/29 01:38:08;;;;;;;1.40;1.25;;;9.90;70.20;;;;;;5051408;28;20033;-78
2021/01/29 01:40:36;;;;;;;1.65;1.38;;;9.90;70.20;;;;;;5051866;28;20048;-78
2021/01/29 01:43:04;;;;;;;0.90;0.80;;;9.90;70.20;;;;;;5052648;28;20386;-78
2021/01/29 01:45:29;;;;;;;1.27;1.17;;;9.90;70.40;;;;;;5052482;28;20049;-78
2021/01/29 01:48:07;;;;;;;1.27;1.08;;;9.90;70.60;;;;;;5049896;28;20060;-78
2021/01/29 01:50:43;;;;;;;1.27;1.17;;;9.90;70.70;;;;;;5031335;28;20017;-79
2021/01/29 01:53:40;;;;;;;1.50;0.95;;;9.90;70.80;;;;;;5032506;28;20060;-77
2021/01/29 01:56:08;;;;;;;0.82;0.82;;;9.90;70.90;;;;;;5047196;28;20112;-77
2021/01/29 01:58:35;;;;;;;1.15;0.93;;;9.90;70.90;;;;;;5052471;28;20387;-78
2021/01/29 02:01:01;;;;;;;1.20;1.10;;;10.00;70.90;;;;;;5052461;28;20419;-77
2021/01/29 02:03:30;;;;;;;0.85;0.85;;;9.90;70.80;;;;;;5050910;28;20467;-77
2021/01/29 02:05:58;;;;;;;1.35;1.02;;;10.00;70.90;;;;;;5051002;28;20166;-78
2021/01/29 02:08:25;;;;;;;1.70;1.15;;;10.00;70.70;;;;;;5051038;28;20040;-78
2021/01/29 02:10:51;;;;;;;1.95;1.50;;;10.00;70.50;;;;;;5051618;28;20025;-77
2021/01/29 02:13:17;;;;;;;1.30;1.20;;;10.00;70.40;;;;;;5051063;28;20045;-78
2021/01/29 02:15:51;;;;;;;1.50;1.40;;;10.00;70.20;;;;;;5052253;28;20438;-78
2021/01/29 02:18:42;;;;;;;4.05;1.50;;;10.00;70.20;;;;;;5052290;28;20029;-78
2021/01/29 02:21:45;;;;;;;2.05;1.50;;;10.00;70.10;;;;;;5052090;28;20043;-78
2021/01/29 02:24:48;;;;;;;1.45;1.05;;;10.00;70.00;;;;;;5051283;28;20449;-78
2021/01/29 02:27:37;;;;;;;2.70;1.00;;;10.00;70.10;;;;;;5032659;28;20026;-78
2021/01/29 02:30:23;;;;;;;2.28;1.42;;;10.00;70.20;;;;;;5031025;28;20152;-79
2021/01/29 02:33:14;;;;;;;1.13;0.90;;;10.00;70.20;;;;;;5032254;28;20017;-78
2021/01/29 02:36:00;;;;;;;1.48;1.02;;;10.10;70.20;;;;;;5032084;28;20471;-78
2021/01/29 02:39:13;;;;;;;1.65;1.10;;;10.10;70.80;;;;;;5030855;28;20044;-78
2021/01/29 02:41:41;;;;;;;2.13;1.20;;;10.00;70.00;;;;;;5029745;28;20406;-78
2021/01/29 02:44:36;;;;;;;5.15;3.83;;;10.10;69.80;;;;;;5030822;28;20068;-78
2021/01/29 02:47:08;;;;;;;3.80;2.20;;;10.10;69.60;;;;;;5043723;28;20057;-78
2021/01/29 02:50:10;;;;;;;1.67;1.20;;;10.00;69.40;;;;;;5052574;28;20462;-78
2021/01/29 02:53:09;;;;;;;1.20;1.00;;;10.00;69.30;;;;;;5054841;28;20102;-78
2021/01/29 02:55:42;;;;;;;1.00;0.90;;;10.00;69.20;;;;;;5039425;28;20029;-78
2021/01/29 02:58:18;;;;;;;0.60;0.60;;;10.00;69.20;;;;;;5037749;28;20030;-78
2021/01/29 03:00:48;;;;;;;1.65;0.90;;;9.90;69.00;;;;;;5040829;28;20028;-78
2021/01/29 03:03:23;;;;;;;1.10;0.50;;;9.90;69.20;;;;;;5058794;28;20129;-79
2021/01/29 03:05:55;;;;;;;1.35;1.10;;;9.90;69.60;;;;;;5059955;28;20032;-79
2021/01/29 03:08:28;;;;;;;1.45;0.95;;;9.90;69.40;;;;;;5059353;28;20040;-78
2021/01/29 03:11:11;;;;;;;1.92;1.15;;;9.90;69.30;;;;;;5039875;28;20056;-79
2021/01/29 03:13:58;;;;;;;1.17;0.95;;;9.80;69.10;;;;;;5039512;28;20085;-78
2021/01/29 03:16:29;;;;;;;0.85;0.80;;;9.80;69.20;;;;;;5037862;28;20360;-78
2021/01/29 03:18:54;;;;;;;1.50;0.85;;;9.80;69.10;;;;;;5036815;28;20018;-78
2021/01/29 03:21:33;;;;;;;0.82;0.82;;;9.80;69.10;;;;;;5052793;28;20047;-78
2021/01/29 03:24:05;;;;;;;1.15;0.93;;;9.70;69.00;;;;;;5053834;28;20041;-78
2021/01/29 03:26:36;;;;;;;1.10;1.00;;;9.70;68.90;;;;;;5052342;28;20083;-78
2021/01/29 03:29:09;;;;;;;1.00;0.88;;;9.70;69.60;;;;;;5054822;28;20386;-77
2021/01/29 03:31:36;;;;;;;0.73;0.70;;;9.70;68.90;;;;;;5053773;28;20021;-78
2021/01/29 03:34:08;;;;;;;0.90;0.70;;;9.70;69.00;;;;;;5054038;28;20409;-78
2021/01/29 03:36:41;;;;;;;2.28;1.10;;;9.70;69.20;;;;;;5055360;28;20061;-78
2021/01/29 03:39:13;;;;;;;4.70;2.05;;;9.70;69.30;;;;;;5051257;28;20032;-78
2021/01/29 03:41:42;;;;;;;1.95;0.93;;;9.70;69.30;;;;;;5034497;28;20072;-78
2021/01/29 03:44:23;;;;;;;0.82;0.80;;;9.70;69.30;;;;;;5035685;28;20024;-79
2021/01/29 03:47:00;;;;;;;1.08;0.98;;;9.70;69.30;;;;;;5054301;28;20040;-78
2021/01/29 03:49:29;;;;;;;1.73;1.38;;;9.70;69.40;;;;;;5055487;28;20031;-78
2021/01/29 03:52:15;;;;;;;2.65;1.60;;;9.70;69.60;;;;;;5054237;28;20108;-78
2021/01/29 03:54:44;;;;;;;0.90;0.85;;;9.70;69.70;;;;;;5063278;28;20041;-78
2021/01/29 03:57:32;;;;;;;1.63;0.90;;;9.70;69.50;;;;;;5055306;28;20490;-78
2021/01/29 04:00:05;;;;;;;5.05;1.20;;;9.80;69.50;;;;;;5051174;28;20043;-79
2021/01/29 04:02:46;;;;;;;1.50;0.93;;;9.70;69.40;;;;;;5053952;28;20084;-77
2021/01/29 04:05:29;;;;;;;0.82;0.80;;;9.70;69.10;;;;;;5054464;28;20394;-79
2021/01/29 04:08:06;;;;;;;0.93;0.77;;;9.70;69.10;;;;;;5042327;28;20058;-78
2021/01/29 04:10:32;;;;;;;1.20;1.10;;;9.70;69.30;;;;;;5034483;28;20475;-79
2021/01/29 04:13:08;;;;;;;1.23;0.90;;;9.80;69.40;;;;;;5034422;28;20040;-77
2021/01/29 04:15:44;;;;;;;1.67;1.27;;;9.70;69.30;;;;;;5049903;28;20052;-78
2021/01/29 04:18:29;;;;;;;1.95;1.10;;;9.80;69.20;;;;;;5054197;28;20017;-78
2021/01/29 04:21:19;;;;;;;1.98;1.23;;;9.80;69.20;;;;;;5054151;28;20021;-78
2021/01/29 04:24:02;;;;;;;1.33;1.13;;;9.70;69.20;;;;;;5054024;28;20041;-78
2021/01/29 04:26:54;;;;;;;2.97;1.50;;;9.80;69.20;;;;;;5052759;28;20040;-77
2021/01/29 04:29:32;;;;;;;4.55;1.20;;;9.70;68.90;;;;;;5052924;28;20032;-78
2021/01/29 04:32:03;;;;;;;1.77;1.33;;;9.70;68.90;;;;;;5052583;28;20463;-78
2021/01/29 04:34:33;;;;;;;2.25;1.35;;;9.70;68.90;;;;;;5052557;28;20104;-78
2021/01/29 04:37:04;;;;;;;4.13;1.17;;;9.70;69.10;;;;;;5053767;28;20027;-78
2021/01/29 04:39:37;;;;;;;4.05;1.63;;;9.70;69.20;;;;;;5052500;28;20055;-78
2021/01/29 04:42:18;;;;;;;1.73;1.20;;;9.70;69.30;;;;;;5052321;28;20029;-78
2021/01/29 04:45:02;;;;;;;2.72;1.30;;;9.70;69.30;;;;;;5053717;28;20025;-78
2021/01/29 04:47:44;;;;;;;1.67;1.20;;;9.70;69.40;;;;;;5053587;28;20021;-78
2021/01/29 04:50:31;;;;;;;1.65;1.42;;;9.70;69.40;;;;;;5053618;28;20059;-78
2021/01/29 04:53:38;;;;;;;3.42;1.40;;;9.80;69.40;;;;;;5053445;28;20020;-79
2021/01/29 04:56:22;;;;;;;1.15;1.02;;;9.80;69.40;;;;;;5051243;28;20498;-78
2021/01/29 04:59:11;;;;;;;1.27;1.17;;;9.80;69.50;;;;;;5051100;28;20029;-78
2021/01/29 05:02:14;;;;;;;3.47;1.60;;;9.80;69.50;;;;;;5028307;28;20087;-78
2021/01/29 05:04:44;;;;;;;1.98;1.38;;;9.80;69.30;;;;;;5033332;28;20052;-78
2021/01/29 05:07:44;;;;;;;9.50;2.22;;;9.80;69.30;;;;;;5032015;28;20121;-79
2021/01/29 05:10:48;;;;;;;2.88;1.27;;;9.70;69.20;;;;;;5033260;28;20048;-78
2021/01/29 05:13:46;;;;;;;2.77;1.50;;;9.80;69.10;;;;;;5032994;28;20033;-79
2021/01/29 05:16:19;;;;;;;2.83;1.65;;;9.80;69.20;;;;;;5032299;28;20033;-79
2021/01/29 05:19:05;;;;;;;2.90;1.38;;;9.80;69.10;;;;;;5033095;28;20030;-79
2021/01/29 05:22:08;;;;;;;2.28;1.83;;;9.80;69.20;;;;;;5033098;28;20087;-79
2021/01/29 05:24:55;;;;;;;2.08;1.70;;;9.70;69.20;;;;;;5032832;28;20545;-79
2021/01/29 05:27:55;;;;;;;2.70;2.28;;;9.70;69.20;;;;;;5042844;28;20033;-78
2021/01/29 05:30:38;;;;;;;2.13;1.70;;;9.80;69.40;;;;;;5051583;28;20033;-78
2021/01/29 05:33:16;;;;;;;5.65;2.08;;;9.80;69.30;;;;;;5052572;28;20055;-78
2021/01/29 05:35:50;;;;;;;3.65;1.98;;;9.80;69.30;;;;;;5051189;28;20024;-78
2021/01/29 05:38:41;;;;;;;4.05;2.03;;;9.70;69.20;;;;;;5051445;28;20545;-79
2021/01/29 05:41:29;;;;;;;2.65;1.90;;;9.70;69.20;;;;;;5051410;28;20436;-78
2021/01/29 05:44:23;;;;;;;2.70;2.05;;;9.70;69.30;;;;;;5052662;28;20024;-78
2021/01/29 05:47:13;;;;;;;2.67;2.00;;;9.70;69.30;;;;;;5052481;28;20050;-79
2021/01/29 05:49:45;;;;;;;2.90;2.00;;;9.70;69.10;;;;;;5051370;28;20355;-79
2021/01/29 05:52:38;;;;;;;3.15;2.00;;;9.70;69.00;;;;;;5052461;28;20383;-79
2021/01/29 05:55:19;;;;;;;3.03;2.28;;;9.70;69.00;;;;;;5051219;28;20051;-79
2021/01/29 05:58:03;;;;;;;2.70;1.80;;;9.70;68.90;;;;;;5039051;28;20026;-79
2021/01/29 06:00:47;;;;;;;2.28;1.98;;;9.70;68.90;;;;;;5032349;28;20025;-79
2021/01/29 06:03:42;;;;;;;2.75;1.77;;;9.60;68.70;;;;;;5032417;28;20093;-78
2021/01/29 06:06:27;;;;;;;5.20;2.95;;;9.60;68.70;;;;;;5032271;28;20021;-79
2021/01/29 06:09:32;;;;;;;28.23;11.45;;;9.60;68.80;;;;;;5032066;28;20506;-79
2021/01/29 06:12:20;;;;;;;49.42;20.65;;;9.60;69.00;;;;;;5051272;28;20131;-79
2021/01/29 06:15:10;;;;;;;37.90;18.30;;;9.60;69.20;;;;;;5051244;28;20052;-79
2021/01/29 06:18:08;;;;;;;26.90;13.30;;;9.60;69.40;;;;;;5034391;28;20029;-78
2021/01/29 06:21:11;;;;;;;24.00;11.85;;;9.60;69.70;;;;;;5034361;28;20468;-79
2021/01/29 06:23:51;;;;;;;16.98;8.65;;;9.60;69.80;;;;;;5034194;28;20045;-79
2021/01/29 06:26:47;;;;;;;12.32;6.55;;;9.70;69.90;;;;;;5051802;28;20111;-79
2021/01/29 06:29:21;;;;;;;11.50;6.18;;;9.70;69.80;;;;;;5055253;28;20040;-79
2021/01/29 06:32:07;;;;;;;9.27;5.27;;;9.70;69.80;;;;;;5055076;28;20028;-79
2021/01/29 06:35:05;;;;;;;16.98;6.07;;;9.80;69.80;;;;;;5054915;28;20037;-78
2021/01/29 06:37:57;;;;;;;10.70;5.50;;;9.80;69.70;;;;;;5054868;28;20129;-79
2021/01/29 06:40:40;;;;;;;11.95;5.97;;;9.80;69.60;;;;;;5038203;28;20044;-78
2021/01/29 06:43:35;;;;;;;12.57;6.05;;;9.80;69.60;;;;;;5055093;28;20039;-79
2021/01/29 06:46:16;;;;;;;8.02;5.00;;;9.80;69.50;;;;;;5054617;28;20052;-79
2021/01/29 06:49:18;;;;;;;9.63;4.88;;;9.80;69.60;;;;;;5052335;28;20029;-79
2021/01/29 06:52:22;;;;;;;7.47;3.70;;;9.80;69.70;;;;;;5036999;28;20018;-79
2021/01/29 06:55:00;;;;;;;5.85;3.30;;;9.90;69.60;;;;;;5036124;28;20033;-79
2021/01/29 06:57:56;;;;;;;6.70;3.53;;;9.90;69.60;;;;;;5056858;28;20032;-79
2021/01/29 07:00:37;;;;;;;5.57;3.53;;;9.90;69.60;;;;;;5051983;28;20033;-79
2021/01/29 07:03:27;;;;;;;4.95;3.60;;;9.90;69.60;;;;;;5036199;28;20025;-79
2021/01/29 07:06:20;;;;;;;4.95;3.53;;;9.90;69.80;;;;;;5036399;28;20434;-78
2021/01/29 07:09:07;;;;;;;4.47;3.47;;;9.90;69.90;;;;;;5037019;28;20033;-81
2021/01/29 07:12:08;;;;;;;5.25;3.15;;;9.90;69.80;;;;;;5039673;28;20028;-79
2021/01/29 07:14:57;;;;;;;4.18;2.70;;;9.90;69.90;;;;;;5053180;28;20032;-80
2021/01/29 07:17:37;;;;;;;3.35;2.50;;;9.90;69.70;;;;;;5025822;28;20094;-79
2021/01/29 07:20:18;;;;;;;4.75;2.80;;;9.90;69.20;;;;;;5053728;28;20025;-79
2021/01/29 07:23:00;;;;;;;7.43;4.13;;;9.90;69.20;;;;;;5054100;28;20507;-81
2021/01/29 07:25:35;;;;;;;8.60;3.58;;;9.90;69.30;;;;;;5054106;28;20422;-81
2021/01/29 07:28:28;;;;;;;5.40;2.90;;;9.90;69.40;;;;;;5045731;28;20575;-84
2021/01/29 07:31:26;;;;;;;8.15;3.00;;;10.00;69.60;;;;;;5049879;28;20478;-76
2021/01/29 07:34:21;;;;;;;7.00;3.35;;;10.00;69.60;;;;;;5018316;28;20505;-76
2021/01/29 07:36:58;;;;;;;4.45;2.92;;;10.00;69.50;;;;;;5034900;28;20497;-80
2021/01/29 07:39:45;;;;;;;3.75;2.33;;;10.00;69.40;;;;;;5052215;28;20155;-72
2021/01/29 07:42:48;;;;;;;6.78;3.65;;;10.00;69.30;;;;;;5036115;28;20844;-77
2021/01/29 07:45:54;;;;;;;4.53;2.90;;;10.00;69.50;;;;;;5051147;28;20114;-77
2021/01/29 07:49:08;;;;;;;5.22;3.33;;;10.00;69.30;;;;;;5031508;28;20406;-77
2021/01/29 07:51:53;;;;;;;7.43;4.13;;;10.00;69.30;;;;;;5038098;28;20088;-77
2021/01/29 07:54:34;;;;;;;6.40;3.53;;;10.00;69.40;;;;;;5058784;28;20026;-77
2021/01/29 07:57:34;;;;;;;9.32;3.90;;;10.10;69.30;;;;;;5055154;28;20025;-77
2021/01/29 08:00:11;;;;;;;5.35;2.75;;;10.00;69.10;;;;;;5057070;28;20051;-77
2021/01/29 08:03:05;;;;;;;4.57;2.75;;;10.00;69.30;;;;;;5042178;28;20025;-78
2021/01/29 08:05:34;;;;;;;3.75;2.72;;;10.00;69.40;;;;;;5054668;28;20033;-77
2021/01/29 08:08:07;;;;;;;5.10;3.78;;;10.00;69.30;;;;;;5051905;28;20029;-77
2021/01/29 08:10:37;;;;;;;9.27;6.00;;;10.00;69.40;;;;;;5049802;28;20024;-77
2021/01/29 08:13:13;;;;;;;16.50;9.77;;;10.00;69.50;;;;;;5054358;28;20028;-77
2021/01/29 08:16:01;;;;;;;11.55;5.75;;;10.10;69.60;;;;;;5053773;28;20136;-77
2021/01/29 08:19:24;;;;;;;9.43;4.18;;;10.10;69.80;;;;;;5051699;28;20025;-77
2021/01/29 08:22:06;;;;;;;5.72;3.58;;;10.10;69.70;;;;;;5044066;28;20109;-77
2021/01/29 08:24:40;;;;;;;5.30;3.63;;;10.10;69.80;;;;;;5036849;28;20049;-76
2021/01/29 08:27:24;;;;;;;9.98;4.00;;;10.20;69.80;;;;;;5041832;28;20087;-77
2021/01/29 08:30:04;;;;;;;5.97;2.97;;;10.20;69.50;;;;;;5049376;28;20029;-77
2021/01/29 08:32:53;;;;;;;5.63;3.28;;;10.20;69.40;;;;;;5046941;28;20033;-77
2021/01/29 08:35:55;;;;;;;3.47;2.58;;;10.20;69.60;;;;;;5050994;28;20028;-78
2021/01/29 08:39:08;;;;;;;4.28;2.67;;;10.20;69.70;;;;;;5046541;28;20028;-77
2021/01/29 08:41:53;;;;;;;9.00;3.67;;;10.30;70.00;;;;;;4993365;28;20034;-77
2021/01/29 08:44:43;;;;;;;5.00;3.05;;;10.30;70.10;;;;;;4993066;28;20085;-77
2021/01/29 08:47:40;;;;;;;5.38;3.28;;;10.30;70.00;;;;;;4992690;28;20062;-77
2021/01/29 08:50:41;;;;;;;4.95;2.80;;;10.40;69.70;;;;;;4992848;28;20509;-77
2021/01/29 08:53:27;;;;;;;5.40;2.20;;;10.40;69.70;;;;;;4998813;28;20073;-77
2021/01/29 08:56:36;;;;;;;6.05;2.80;;;10.50;70.00;;;;;;4999970;28;20061;-77
2021/01/29 08:59:06;;;;;;;6.18;2.15;;;10.50;70.10;;;;;;5006691;28;20081;-77
2021/01/29 09:01:32;;;;;;;2.83;2.10;;;10.60;70.40;;;;;;4995495;28;20438;-77
2021/01/29 09:04:49;;;;;;;3.03;1.73;;;10.70;70.70;;;;;;5012082;28;20026;-77
2021/01/29 09:07:21;;;;;;;3.05;2.15;;;10.70;70.70;;;;;;5011556;28;20514;-76
2021/01/29 09:09:47;;;;;;;4.07;1.67;;;10.80;70.60;;;;;;5012585;28;20038;-77
2021/01/29 09:12:24;;;;;;;3.03;2.47;;;10.90;70.60;;;;;;5007215;28;20036;-76
2021/01/29 09:15:04;;;;;;;4.30;2.78;;;10.90;70.60;;;;;;5007544;28;20037;-76
2021/01/29 09:18:22;;;;;;;3.28;2.33;;;10.90;70.00;;;;;;5053838;28;20491;-76
2021/01/29 09:21:05;;;;;;;3.70;2.35;;;11.00;69.80;;;;;;5041619;28;20045;-77
2021/01/29 09:24:08;;;;;;;3.50;2.38;;;11.00;69.30;;;;;;5046263;28;20049;-77
2021/01/29 09:27:02;;;;;;;3.35;2.50;;;11.00;69.60;;;;;;5039683;28;20064;-76
2021/01/29 09:29:30;;;;;;;;;;;11.00;69.70;;;;;;5043940;28;20049;-77
2021/01/29 09:32:04;;;;;;;6.38;2.75;;;11.10;69.70;;;;;;5066551;28;20337;-77
2021/01/29 09:34:43;;;;;;;5.72;3.00;;;11.10;69.60;;;;;;5054150;28;20017;-77
2021/01/29 09:37:19;;;;;;;4.80;2.90;;;11.10;69.50;;;;;;5033846;28;20108;-76
2021/01/29 09:39:57;;;;;;;5.95;2.90;;;11.10;69.50;;;;;;5033602;28;20025;-77
2021/01/29 09:42:51;;;;;;;19.80;6.82;;;11.10;69.50;;;;;;5033758;28;20024;-76
2021/01/29 09:45:23;;;;;;;5.65;2.75;;;11.10;69.40;;;;;;5049364;28;20028;-77
2021/01/29 09:48:02;;;;;;;5.07;2.22;;;11.10;69.50;;;;;;5053566;28;20032;-76
2021/01/29 09:50:30;;;;;;;27.50;10.90;;;11.10;69.90;;;;;;5053240;28;20021;-76
2021/01/29 09:53:05;;;;;;;9.07;4.03;;;11.10;70.10;;;;;;5033298;28;20526;-76
2021/01/29 09:55:43;;;;;;;6.20;2.75;;;11.10;70.30;;;;;;5033359;28;20030;-76
2021/01/29 09:58:11;;;;;;;3.40;1.58;;;11.10;70.50;;;;;;5038854;28;20072;-77
2021/01/29 10:00:40;;;;;;;2.13;1.10;;;11.20;70.70;;;;;;5052706;28;20046;-77
2021/01/29 10:03:32;;;;;;;1.27;0.70;;;11.20;70.90;;;;;;5040082;28;20029;-76
2021/01/29 10:06:21;;;;;;;3.75;1.33;;;11.30;71.00;;;;;;5033584;28;20558;-76
2021/01/29 10:08:52;;;;;;;2.17;1.10;;;11.30;71.10;;;;;;5024914;28;20437;-76
2021/01/29 10:11:24;;;;;;;3.55;2.35;;;11.40;71.10;;;;;;5045290;28;20068;-77
2021/01/29 10:14:07;;;;;;;5.10;1.65;;;11.40;71.10;;;;;;5033194;28;20057;-76
2021/01/29 10:16:35;;;;;;;5.18;0.70;;;11.40;71.30;;;;;;5052066;28;20029;-76
2021/01/29 10:19:13;;;;;;;1.95;1.13;;;11.50;71.60;;;;;;5053389;28;20024;-76
2021/01/29 10:21:57;;;;;;;3.08;1.48;;;11.60;71.70;;;;;;5052777;28;20036;-76
2021/01/29 10:24:39;;;;;;;2.60;1.40;;;11.70;71.90;;;;;;5052281;28;20114;-76
2021/01/29 10:27:32;;;;;;;2.15;1.20;;;11.80;71.90;;;;;;5052732;28;20445;-76
2021/01/29 10:30:25;;;;;;;2.78;1.35;;;11.90;71.50;;;;;;5052600;28;20025;-76
2021/01/29 10:33:12;;;;;;;6.03;1.20;;;12.00;71.20;;;;;;5052713;28;20175;-76
2021/01/29 10:35:48;;;;;;;5.10;1.38;;;12.10;71.00;;;;;;5051805;28;20034;-77
2021/01/29 10:38:19;;;;;;;1.23;0.93;;;12.10;71.70;;;;;;5033296;28;20045;-76
2021/01/29 10:41:03;;;;;;;1.55;1.10;;;12.10;71.80;;;;;;5032999;28;20032;-77
2021/01/29 10:44:19;;;;;;;2.08;1.33;;;12.10;72.10;;;;;;5033026;28;20026;-76
2021/01/29 10:46:56;;;;;;;;;;;12.20;71.90;;;;;;5040023;28;20032;-77
2021/01/29 10:49:44;;;;;;;1.70;0.98;;;12.30;71.50;;;;;;5070873;28;19905;-76
2021/01/29 10:52:13;;;;;;;6.03;1.17;;;12.30;71.40;;;;;;5070660;28;20035;-76
2021/01/29 10:54:41;;;;;;;3.53;1.95;;;12.30;71.30;;;;;;5070442;28;20031;-76
2021/01/29 10:57:06;;;;;;;2.92;1.20;;;12.30;71.20;;;;;;5058586;28;20049;-77
2021/01/29 10:59:45;;;;;;;2.50;1.40;;;12.30;71.30;;;;;;5050332;28;20581;-76
2021/01/29 11:02:14;;;;;;;3.33;1.50;;;12.40;71.10;;;;;;5069952;28;20048;-76
2021/01/29 11:04:52;;;;;;;2.60;1.83;;;12.50;70.70;;;;;;5070605;28;20097;-76
2021/01/29 11:07:25;;;;;;;3.78;1.42;;;12.50;70.60;;;;;;5068972;28;20090;-76
2021/01/29 11:10:03;;;;;;;3.55;1.38;;;12.50;70.40;;;;;;5055953;28;20034;-76
2021/01/29 11:13:16;;;;;;;1.60;1.10;;;12.60;70.20;;;;;;5059294;28;20033;-76
2021/01/29 11:15:53;;;;;;;3.50;1.60;;;12.60;69.80;;;;;;5055116;28;20059;-76
2021/01/29 11:18:35;;;;;;;1.38;1.08;;;12.60;69.70;;;;;;5073186;28;20039;-76
2021/01/29 11:21:28;;;;;;;1.45;1.10;;;12.60;69.10;;;;;;5071817;28;20020;-76
2021/01/29 11:24:36;;;;;;;2.00;1.30;;;12.70;69.70;;;;;;5055721;28;20077;-76
2021/01/29 11:27:24;;;;;;;2.00;1.23;;;12.80;69.60;;;;;;5054880;28;20032;-76
2021/01/29 11:30:02;;;;;;;1.67;1.10;;;12.90;69.70;;;;;;5042182;28;20017;-76
2021/01/29 11:32:44;;;;;;;1.50;1.00;;;12.90;69.30;;;;;;5037658;28;20030;-76
2021/01/29 11:35:47;;;;;;;1.55;0.95;;;13.00;69.30;;;;;;5051004;28;20083;-76
2021/01/29 11:38:22;;;;;;;3.58;1.60;;;13.10;68.90;;;;;;5055865;28;20094;-76
2021/01/29 11:40:59;;;;;;;4.50;1.02;;;13.20;68.80;;;;;;5055538;28;20095;-76
2021/01/29 11:43:39;;;;;;;2.30;1.25;;;13.30;68.40;;;;;;5044563;28;20391;-76
2021/01/29 11:46:31;;;;;;;1.98;0.95;;;13.40;68.00;;;;;;5053838;28;20486;-76
2021/01/29 11:49:03;;;;;;;1.75;0.82;;;13.50;67.60;;;;;;5054395;28;20481;-76
2021/01/29 11:51:37;;;;;;;2.85;1.48;;;13.60;67.70;;;;;;5054257;28;20474;-76
2021/01/29 11:54:07;;;;;;;2.97;1.45;;;13.70;67.90;;;;;;5054120;28;20115;-76
2021/01/29 11:56:54;;;;;;;2.10;1.10;;;13.70;67.20;;;;;;5034215;28;20549;-77
2021/01/29 11:59:25;;;;;;;4.57;1.40;;;13.80;67.00;;;;;;5035336;28;20029;-77
2021/01/29 12:01:58;;;;;;;2.38;1.23;;;13.90;66.10;;;;;;5034208;28;20033;-76
2021/01/29 12:04:48;;;;;;;1.65;1.00;;;13.90;66.00;;;;;;5047550;28;20029;-76
2021/01/29 12:07:22;;;;;;;1.42;1.00;;;13.90;65.50;;;;;;5047167;28;20033;-76
2021/01/29 12:10:12;;;;;;;3.67;0.95;;;13.90;65.50;;;;;;5055103;28;20066;-76
2021/01/29 12:13:08;;;;;;;1.52;0.93;;;14.00;66.10;;;;;;5053483;28;20028;-76
2021/01/29 12:15:46;;;;;;;2.38;0.50;;;14.00;65.20;;;;;;5054026;28;20106;-77
2021/01/29 12:18:17;;;;;;;6.95;2.55;;;14.10;66.00;;;;;;5062648;28;20104;-77
2021/01/29 12:20:45;;;;;;;3.17;1.50;;;14.10;64.80;;;;;;5056143;28;20385;-77
2021/01/29 12:23:22;;;;;;;3.17;1.75;;;14.20;64.30;;;;;;5053116;28;20044;-77
2021/01/29 12:26:07;;;;;;;2.85;1.15;;;14.20;64.00;;;;;;5051963;28;20367;-77
2021/01/29 12:29:02;;;;;;;2.75;0.70;;;14.30;63.20;;;;;;5039131;28;20021;-77
2021/01/29 12:31:36;;;;;;;;;;;14.40;64.30;;;;;;5055319;28;20522;-77
2021/01/29 12:34:37;;;;;;;1.40;0.75;;;14.50;64.80;;;;;;5052209;28;20344;-77
2021/01/29 12:37:08;;;;;;;0.52;0.32;;;14.60;63.20;;;;;;5036664;28;20048;-77
2021/01/29 12:39:44;;;;;;;0.40;0.32;;;14.70;62.50;;;;;;5035022;28;20053;-77
2021/01/29 12:42:18;;;;;;;0.95;0.40;;;14.80;62.90;;;;;;5038567;28;20041;-77
2021/01/29 12:45:10;;;;;;;1.60;0.53;;;14.90;62.10;;;;;;5034509;28;20108;-77
2021/01/29 12:47:55;;;;;;;0.63;0.30;;;15.00;62.30;;;;;;5050097;28;20032;-77
2021/01/29 12:50:33;;;;;;;;;;;15.00;62.10;;;;;;5057802;28;20031;-77
2021/01/29 12:53:11;;;;;;;1.15;0.63;;;15.10;63.70;;;;;;5049336;28;19915;-78
2021/01/29 12:55:46;;;;;;;1.92;0.95;;;15.20;63.00;;;;;;5040392;28;20032;-77
2021/01/29 12:58:16;;;;;;;1.75;1.23;;;15.20;61.10;;;;;;5054065;28;20090;-77
2021/01/29 13:00:42;;;;;;;1.25;0.77;;;15.20;60.70;;;;;;5052959;28;20032;-77
2021/01/29 13:03:08;;;;;;;1.38;0.80;;;15.20;61.40;;;;;;5042505;28;20030;-78
2021/01/29 13:05:52;;;;;;;2.85;0.65;;;15.20;61.30;;;;;;5037557;28;20108;-78
2021/01/29 13:08:38;;;;;;;6.30;0.73;;;15.20;61.80;;;;;;5041065;28;20037;-77
2021/01/29 13:11:30;;;;;;;1.25;0.50;;;15.30;62.20;;;;;;5035562;28;20239;-78
2021/01/29 13:14:36;;;;;;;6.65;0.63;;;15.30;61.70;;;;;;5032844;28;20037;-79
2021/01/29 13:17:26;;;;;;;1.35;0.43;;;15.30;61.40;;;;;;5043296;28;20033;-77
2021/01/29 13:20:10;;;;;;;1.27;0.43;;;15.30;60.10;;;;;;5036094;28;20025;-78
2021/01/29 13:22:45;;;;;;;2.00;0.60;;;15.20;60.30;;;;;;5046992;28;20025;-79
2021/01/29 13:25:14;;;;;;;3.83;0.88;;;15.20;60.90;;;;;;5031960;28;20034;-79
2021/01/29 13:27:46;;;;;;;5.45;0.70;;;15.10;61.90;;;;;;5048421;28;20041;-79
2021/01/29 13:30:34;;;;;;;6.68;0.68;;;15.10;62.30;;;;;;5051099;28;20055;-77
2021/01/29 13:33:21;;;;;;;2.40;0.50;;;15.00;62.00;;;;;;5035169;28;20036;-78
2021/01/29 13:35:50;;;;;;;1.80;0.75;;;14.80;62.00;;;;;;5044469;28;20017;-77
2021/01/29 13:38:35;;;;;;;1.88;0.50;;;14.70;61.70;;;;;;5050970;28;20029;-77
2021/01/29 13:41:12;;;;;;;;;;;14.50;62.60;;;;;;5032101;28;20032;-77
2021/01/29 13:43:41;;;;;;;0.68;0.40;;;14.40;64.00;;;;;;5022886;28;19904;-76
2021/01/29 13:46:19;;;;;;;1.52;0.50;;;14.10;65.50;;;;;;5051121;28;20045;-76
2021/01/29 13:48:45;;;;;;;1.55;0.40;;;13.90;66.20;;;;;;5034180;28;20044;-76
2021/01/29 13:51:32;;;;;;;0.60;0.28;;;13.70;66.20;;;;;;5031374;28;20025;-76
2021/01/29 13:53:59;;;;;;;1.67;0.55;;;13.40;66.60;;;;;;5045240;28;20484;-76
2021/01/29 13:56:48;;;;;;;1.25;0.65;;;13.30;67.50;;;;;;5051856;28;20116;-76
2021/01/29 13:59:52;;;;;;;2.78;0.63;;;13.20;67.70;;;;;;5041097;28;20017;-76
2021/01/29 14:02:49;;;;;;;1.77;1.02;;;13.00;67.80;;;;;;5051701;28;20144;-77